createdAt,value
2022-10-17T00:01:15.727Z,93.96
2022-10-17T00:06:42.983Z,94.01
2022-10-17T00:11:51.251Z,94.27
2022-10-17T00:16:58.389Z,93.28
2022-10-17T00:22:05.478Z,92.91
2022-10-17T00:27:12.649Z,92.87
2022-10-17T00:32:21.500Z,93.71
2022-10-17T00:37:29.214Z,93.66
2022-10-17T00:42:36.616Z,94.14
2022-10-17T00:47:46.046Z,94.34
2022-10-17T00:52:55.926Z,95.44
2022-10-17T00:58:06.206Z,94.93
2022-10-17T01:03:13.930Z,94.74
2022-10-17T01:08:23.676Z,94.82
2022-10-17T01:13:36.149Z,95.48
2022-10-17T01:18:52.823Z,95.69
2022-10-17T01:24:43.177Z,95.07
2022-10-17T01:30:21.148Z,95.12
2022-10-17T01:35:34.190Z,95.58
2022-10-17T01:40:48.354Z,96.55
2022-10-17T01:46:02.773Z,97.07
2022-10-17T01:51:17.127Z,97.04
2022-10-17T01:56:29.835Z,97.10
2022-10-17T02:01:39.524Z,96.45
2022-10-17T02:06:46.577Z,96.83
2022-10-17T02:12:12.353Z,96.47
2022-10-17T02:17:29.267Z,97.28
2022-10-17T02:22:44.238Z,97.70
2022-10-17T02:28:00.502Z,96.96
2022-10-17T02:33:12.265Z,95.95
2022-10-17T02:40:52.004Z,96.97
2022-10-17T02:45:59.642Z,96.74
2022-10-17T02:51:13.471Z,95.75
2022-10-17T02:56:22.936Z,95.72
2022-10-17T03:01:32.033Z,96.03
2022-10-17T03:06:40.160Z,96.53
2022-10-17T03:11:48.027Z,97.10
2022-10-17T03:16:55.845Z,96.79
2022-10-17T03:22:02.774Z,96.67
2022-10-17T03:27:08.281Z,96.26
2022-10-17T03:32:15.931Z,95.03
2022-10-17T03:37:24.157Z,95.60
2022-10-17T03:42:32.898Z,96.41
2022-10-17T03:47:40.493Z,95.89
2022-10-17T03:52:52.367Z,95.24
2022-10-17T03:58:00.114Z,95.19
2022-10-17T04:03:08.199Z,96.20
2022-10-17T04:08:15.814Z,96.71
2022-10-17T04:13:22.833Z,95.66
2022-10-17T04:18:28.329Z,95.81
2022-10-17T04:23:36.915Z,96.07
2022-10-17T04:28:44.207Z,95.52
2022-10-17T04:33:52.679Z,95.44
2022-10-17T04:39:01.963Z,95.34
2022-10-17T04:44:09.974Z,95.58
2022-10-17T04:49:17.513Z,95.64
2022-10-17T04:54:26.626Z,95.85
2022-10-17T04:59:33.701Z,96.26
2022-10-17T05:04:39.113Z,95.90
2022-10-17T05:09:46.400Z,95.92
2022-10-17T05:14:54.156Z,96.60
2022-10-17T05:20:01.070Z,97.30
2022-10-17T05:25:09.615Z,97.05
2022-10-17T05:30:17.083Z,97.74
2022-10-17T05:41:05.262Z,97.73
2022-10-17T05:46:13.298Z,97.05
2022-10-17T05:51:21.347Z,96.20
2022-10-17T05:56:28.470Z,97.11
2022-10-17T06:01:36.492Z,96.90
2022-10-17T06:06:43.736Z,97.10
2022-10-17T06:11:51.645Z,97.28
2022-10-17T06:16:59.412Z,97.63
2022-10-17T06:22:06.437Z,98.21
2022-10-17T06:27:12.327Z,99.05
2022-10-17T06:32:20.615Z,99.58
2022-10-17T06:37:29.226Z,99.59
2022-10-17T06:42:39.740Z,99.38
2022-10-17T06:47:47.133Z,99.38
2022-10-17T06:52:55.876Z,99.77
2022-10-17T06:58:03.077Z,99.34
2022-10-17T07:03:11.020Z,98.93
2022-10-17T07:18:13.167Z,97.61
2022-10-17T07:23:21.865Z,96.73
2022-10-17T07:28:29.825Z,95.96
2022-10-17T07:33:37.548Z,95.39
2022-10-17T07:38:45.843Z,94.01
2022-10-17T07:43:53.378Z,93.06
2022-10-17T07:49:00.887Z,92.29
2022-10-17T07:54:10.060Z,92.05
2022-10-17T07:59:17.799Z,91.16
2022-10-17T08:04:25.415Z,89.95
2022-10-17T08:09:32.842Z,88.58
2022-10-17T08:14:41.713Z,87.61
2022-10-17T08:19:49.851Z,86.98
2022-10-17T08:24:56.969Z,86.52
2022-10-17T08:30:04.689Z,85.85
2022-10-17T08:35:15.060Z,84.43
2022-10-17T08:40:26.456Z,83.94
2022-10-17T08:45:37.614Z,82.51
2022-10-17T08:50:51.048Z,80.79
2022-10-17T08:56:04.578Z,80.53
2022-10-17T09:01:27.415Z,80.16
2022-10-17T09:06:39.060Z,79.83
2022-10-17T09:11:58.721Z,79.37
2022-10-17T09:17:17.698Z,78.13
2022-10-17T09:22:30.424Z,77.51
2022-10-17T09:27:44.684Z,77.58
2022-10-17T09:32:54.656Z,77.59
2022-10-17T09:38:02.686Z,76.72
2022-10-17T09:55:31.973Z,74.48
2022-10-17T10:00:38.435Z,74.39
2022-10-17T10:05:44.023Z,74.16
2022-10-17T10:10:57.519Z,73.75
2022-10-17T10:16:24.167Z,73.62
2022-10-17T10:21:28.652Z,72.95
2022-10-17T10:26:39.338Z,72.30
2022-10-17T10:31:43.956Z,71.37
2022-10-17T10:36:53.542Z,71.26
2022-10-17T10:41:57.556Z,71.06
2022-10-17T10:47:20.618Z,70.30
2022-10-17T10:52:41.060Z,70.25
2022-10-17T10:57:48.692Z,69.57
2022-10-17T11:03:02.025Z,69.16
2022-10-17T11:08:18.382Z,68.72
2022-10-17T11:13:28.413Z,68.37
2022-10-17T11:18:39.907Z,68.59
2022-10-17T11:23:47.751Z,68.68
2022-10-17T11:28:53.102Z,68.77
2022-10-17T11:34:00.322Z,67.85
2022-10-17T11:39:08.870Z,67.26
2022-10-17T11:44:20.296Z,66.97
2022-10-17T11:49:28.992Z,66.47
2022-10-17T11:54:37.935Z,65.74
2022-10-17T12:00:05.602Z,65.47
2022-10-17T12:05:25.654Z,65.32
2022-10-17T12:10:40.383Z,64.83
2022-10-17T12:15:46.621Z,64.57
2022-10-17T12:20:59.038Z,64.82
2022-10-17T12:26:05.770Z,64.06
2022-10-17T12:31:22.727Z,64.19
2022-10-17T12:36:50.034Z,64.01
2022-10-17T12:41:58.127Z,63.05
2022-10-17T12:47:29.092Z,62.55
2022-10-17T12:52:58.406Z,62.85
2022-10-17T12:58:07.889Z,62.22
2022-10-17T13:03:17.262Z,61.86
2022-10-17T13:08:24.886Z,61.73
2022-10-17T13:13:47.112Z,61.05
2022-10-17T13:18:54.481Z,60.81
2022-10-17T13:23:58.930Z,60.98
2022-10-17T13:29:05.612Z,60.18
2022-10-17T13:34:19.658Z,60.63
2022-10-17T13:39:44.878Z,61.04
2022-10-17T13:44:51.496Z,60.73
2022-10-17T13:49:57.868Z,60.42
2022-10-17T13:55:16.813Z,59.84
2022-10-17T14:00:23.356Z,60.10
2022-10-17T14:05:28.804Z,60.17
2022-10-17T14:10:36.276Z,60.74
2022-10-17T14:15:46.406Z,60.31
2022-10-17T14:26:20.783Z,60.80
2022-10-17T14:31:30.008Z,61.12
2022-10-17T14:36:37.491Z,60.93
2022-10-17T14:41:46.010Z,61.30
2022-10-17T14:46:56.375Z,61.25
2022-10-17T14:52:28.996Z,61.58
2022-10-17T14:57:43.536Z,61.75
2022-10-17T15:02:49.690Z,62.39
2022-10-17T15:07:55.325Z,62.81
2022-10-17T15:13:26.071Z,63.47
2022-10-17T15:18:24.737Z,64.68
2022-10-17T15:23:28.455Z,65.55
2022-10-17T15:28:32.160Z,66.58
2022-10-17T15:33:36.302Z,67.49
2022-10-17T15:38:40.546Z,68.43
2022-10-17T15:43:44.554Z,69.04
2022-10-17T15:48:49.563Z,69.67
2022-10-17T15:53:53.368Z,70.00
2022-10-17T15:58:58.364Z,70.75
2022-10-17T16:04:02.923Z,71.55
2022-10-17T16:09:06.963Z,72.56
2022-10-17T16:14:13.178Z,73.08
2022-10-17T16:19:17.597Z,73.67
2022-10-17T16:24:22.246Z,74.38
2022-10-17T16:29:26.638Z,75.02
2022-10-17T16:34:32.000Z,75.88
2022-10-17T16:39:36.153Z,76.66
2022-10-17T16:44:40.598Z,77.14
2022-10-17T16:49:45.557Z,77.50
2022-10-17T16:54:51.052Z,78.59
2022-10-17T16:59:55.092Z,79.63
2022-10-17T17:04:58.947Z,80.20
2022-10-17T17:10:04.051Z,80.47
2022-10-17T17:15:09.099Z,80.94
2022-10-17T17:20:14.458Z,81.43
2022-10-17T17:25:20.335Z,81.85
2022-10-17T17:30:23.931Z,82.59
2022-10-17T17:35:28.683Z,83.00
2022-10-17T17:40:34.366Z,83.53
2022-10-17T17:45:38.904Z,83.83
2022-10-17T17:50:44.191Z,84.28
2022-10-17T17:55:49.116Z,84.58
2022-10-17T18:00:53.368Z,85.40
2022-10-17T18:05:57.200Z,85.66
2022-10-17T18:11:01.488Z,85.95
2022-10-17T18:16:12.619Z,86.37
2022-10-17T18:21:16.651Z,86.11
2022-10-17T18:26:21.949Z,86.53
2022-10-17T18:31:28.062Z,87.09
2022-10-17T18:36:34.890Z,87.65
2022-10-17T18:41:38.497Z,87.99
2022-10-17T18:46:42.758Z,88.23
2022-10-17T18:51:47.807Z,88.48
2022-10-17T18:56:54.829Z,88.12
2022-10-17T19:01:58.575Z,88.08
2022-10-17T19:07:02.556Z,88.23
2022-10-17T19:12:06.994Z,88.79
2022-10-17T19:17:11.023Z,89.08
2022-10-17T19:22:15.418Z,88.73
2022-10-17T19:27:20.574Z,89.15
2022-10-17T19:32:24.583Z,89.72
2022-10-17T19:37:30.104Z,90.06
2022-10-17T19:42:34.932Z,89.94
2022-10-17T19:47:39.331Z,89.75
2022-10-17T19:52:43.062Z,89.57
2022-10-17T19:57:47.638Z,89.73
2022-10-17T20:02:52.468Z,90.18
2022-10-17T20:07:57.035Z,89.80
2022-10-17T20:13:00.963Z,90.27
2022-10-17T20:18:05.678Z,90.29
2022-10-17T20:23:09.395Z,91.53
2022-10-17T20:28:13.326Z,91.94
2022-10-17T20:33:18.193Z,91.61
2022-10-17T20:38:22.338Z,91.40
2022-10-17T20:43:26.880Z,92.06
2022-10-17T20:48:31.378Z,92.19
2022-10-17T20:53:37.582Z,92.03
2022-10-17T20:58:41.892Z,91.19
2022-10-17T21:03:46.703Z,90.66
2022-10-17T21:08:54.187Z,90.55
2022-10-17T21:14:00.431Z,90.06
2022-10-17T21:19:05.673Z,90.96
2022-10-17T21:24:13.925Z,91.18
2022-10-17T21:29:19.673Z,91.33
2022-10-17T21:34:24.444Z,91.72
2022-10-17T21:39:28.032Z,91.58
2022-10-17T21:44:32.332Z,91.70
2022-10-17T21:49:37.740Z,91.31
2022-10-17T21:54:41.620Z,91.55
2022-10-17T21:59:45.994Z,92.20
2022-10-17T22:04:50.393Z,92.42
2022-10-17T22:09:55.406Z,92.70
2022-10-17T22:14:59.599Z,92.61
2022-10-17T22:20:03.848Z,92.92
2022-10-17T22:25:10.305Z,92.23
2022-10-17T22:30:15.664Z,92.11
2022-10-17T22:35:19.850Z,92.16
2022-10-17T22:40:23.567Z,91.88
2022-10-17T22:45:27.097Z,91.03
2022-10-17T22:50:30.833Z,91.35
2022-10-17T22:55:35.022Z,91.49
2022-10-17T23:00:39.725Z,91.57
2022-10-17T23:05:43.636Z,92.02
2022-10-17T23:10:48.868Z,92.12
2022-10-17T23:15:54.161Z,92.11
2022-10-17T23:20:57.757Z,92.64
2022-10-17T23:26:10.318Z,92.58
2022-10-17T23:31:17.344Z,92.32
2022-10-17T23:40:55.985Z,91.66
2022-10-17T23:46:03.768Z,91.64
2022-10-17T23:51:12.075Z,91.57
2022-10-17T23:56:19.712Z,91.44
